Time;durP1;ratioP1;P1;durP2;ratioP2;P2;SDS_P1;SDS_P2;PMS_P1;PMS_P2;Temp;Humidity;BMP_temperature;BMP_pressure;BME280_temperature;BME280_humidity;BME280_pressure;Samples;Min_cycle;Max_cycle;Signal;HPM_P1;HPM_P2
2023/12/21 00:02:25;;;;;;;0.13;0.13;;;;;;;;;;4976047;28;20272;-73
2023/12/21 00:04:53;;;;;;;0.10;0.10;;;;;;;;;;4986959;28;20428;-73
2023/12/21 00:07:19;;;;;;;0.20;0.20;;;;;;;;;;4976178;28;20309;-72
2023/12/21 00:09:46;;;;;;;0.20;0.20;;;;;;;;;;4986763;28;20247;-72
2023/12/21 00:12:13;;;;;;;0.13;0.13;;;;;;;;;;4976002;28;20319;-72
2023/12/21 00:14:39;;;;;;;0.10;0.10;;;;;;;;;;4986948;28;20233;-72
2023/12/21 00:17:05;;;;;;;0.20;0.20;;;;;;;;;;4976058;28;20257;-72
2023/12/21 00:19:32;;;;;;;0.10;0.10;;;;;;;;;;4986663;28;20211;-72
2023/12/21 00:22:19;;;;;;;0.20;0.20;;;;;;;;;;4975888;28;20249;-72
2023/12/21 00:24:47;;;;;;;0.20;0.20;;;;;;;;;;4986915;28;20242;-72
2023/12/21 00:27:13;;;;;;;0.20;0.20;;;;;;;;;;4975885;28;20309;-72
2023/12/21 00:29:40;;;;;;;0.20;0.20;;;;;;;;;;4986510;28;20235;-73
2023/12/21 00:32:06;;;;;;;0.20;0.20;;;;;;;;;;4975708;28;20248;-72
2023/12/21 00:34:33;;;;;;;0.20;0.20;;;;;;;;;;4986674;28;20428;-73
2023/12/21 00:36:59;;;;;;;0.20;0.20;;;;;;;;;;4975729;28;20290;-72
2023/12/21 00:39:25;;;;;;;0.20;0.20;;;;;;;;;;4986534;28;20238;-72
2023/12/21 00:41:53;;;;;;;0.20;0.20;;;;;;;;;;4975766;28;20307;-72
2023/12/21 00:44:20;;;;;;;0.20;0.20;;;;;;;;;;4986420;28;20209;-72
2023/12/21 00:46:46;;;;;;;0.13;0.13;;;;;;;;;;4975671;28;20488;-72
2023/12/21 00:49:12;;;;;;;0.20;0.20;;;;;;;;;;4986331;28;20533;-72
2023/12/21 00:51:39;;;;;;;0.20;0.20;;;;;;;;;;4974588;28;20246;-72
2023/12/21 00:54:05;;;;;;;0.10;0.10;;;;;;;;;;4985833;28;20215;-73
2023/12/21 00:56:31;;;;;;;0.20;0.20;;;;;;;;;;4975598;28;20258;-73
2023/12/21 00:58:59;;;;;;;0.10;0.10;;;;;;;;;;4985814;28;20352;-72
2023/12/21 01:01:26;;;;;;;0.20;0.20;;;;;;;;;;4975578;28;20243;-72
2023/12/21 01:03:52;;;;;;;0.10;0.10;;;;;;;;;;4985406;28;20303;-72
2023/12/21 01:06:18;;;;;;;0.10;0.10;;;;;;;;;;4975286;28;20266;-72
2023/12/21 01:08:45;;;;;;;0.10;0.10;;;;;;;;;;4985743;28;20429;-73
2023/12/21 01:11:11;;;;;;;0.10;0.10;;;;;;;;;;4975186;28;20495;-73
2023/12/21 01:13:38;;;;;;;0.20;0.20;;;;;;;;;;4985287;28;20215;-72
2023/12/21 01:16:06;;;;;;;0.20;0.20;;;;;;;;;;4975179;28;20288;-74
2023/12/21 01:18:33;;;;;;;0.20;0.20;;;;;;;;;;4985522;28;20216;-73
2023/12/21 01:20:59;;;;;;;0.17;0.17;;;;;;;;;;4975286;28;20312;-71
2023/12/21 01:23:26;;;;;;;0.10;0.10;;;;;;;;;;4984969;28;20208;-72
2023/12/21 01:25:52;;;;;;;0.10;0.10;;;;;;;;;;4975131;28;20320;-71
2023/12/21 01:28:19;;;;;;;0.10;0.10;;;;;;;;;;4985180;28;20481;-72
2023/12/21 01:30:45;;;;;;;0.10;0.10;;;;;;;;;;4975046;28;20302;-73
2023/12/21 01:33:13;;;;;;;0.10;0.10;;;;;;;;;;4984863;28;20350;-72
2023/12/21 01:35:39;;;;;;;0.10;0.10;;;;;;;;;;4975228;28;20561;-73
2023/12/21 01:38:06;;;;;;;0.10;0.10;;;;;;;;;;4984879;28;20259;-73
2023/12/21 01:40:32;;;;;;;0.20;0.20;;;;;;;;;;4974828;28;20425;-72
2023/12/21 01:42:59;;;;;;;0.10;0.10;;;;;;;;;;4984717;28;20242;-72
2023/12/21 01:45:25;;;;;;;0.20;0.20;;;;;;;;;;4974851;28;20220;-71
2023/12/21 01:47:52;;;;;;;0.10;0.10;;;;;;;;;;4984276;28;20195;-72
2023/12/21 01:50:20;;;;;;;0.20;0.20;;;;;;;;;;4974761;28;20259;-73
2023/12/21 01:52:46;;;;;;;0.10;0.10;;;;;;;;;;4984474;28;20389;-72
2023/12/21 01:55:13;;;;;;;0.20;0.20;;;;;;;;;;4974796;28;20274;-72
2023/12/21 01:57:40;;;;;;;0.20;0.20;;;;;;;;;;4984096;28;20268;-72
2023/12/21 02:00:07;;;;;;;0.20;0.20;;;;;;;;;;4984898;28;20219;-72
2023/12/21 02:02:33;;;;;;;0.20;0.20;;;;;;;;;;4957892;28;20287;-73
2023/12/21 02:05:00;;;;;;;0.20;0.20;;;;;;;;;;4984720;28;20267;-72
2023/12/21 02:07:28;;;;;;;0.20;0.20;;;;;;;;;;4974032;28;20246;-73
2023/12/21 02:09:54;;;;;;;0.10;0.10;;;;;;;;;;4984772;28;20219;-72
2023/12/21 02:12:20;;;;;;;0.20;0.20;;;;;;;;;;4973896;28;20312;-72
2023/12/21 02:14:47;;;;;;;0.13;0.13;;;;;;;;;;4985033;28;20230;-73
2023/12/21 02:17:16;;;;;;;0.10;0.10;;;;;;;;;;4973940;28;20417;-73
2023/12/21 02:19:42;;;;;;;0.13;0.13;;;;;;;;;;4985090;28;20232;-72
2023/12/21 02:22:10;;;;;;;0.20;0.20;;;;;;;;;;4973744;28;20255;-72
2023/12/21 02:24:38;;;;;;;0.10;0.10;;;;;;;;;;4984585;28;20206;-72
2023/12/21 02:27:04;;;;;;;0.10;0.10;;;;;;;;;;4973755;28;20246;-73
2023/12/21 02:29:31;;;;;;;0.10;0.10;;;;;;;;;;4984634;28;20238;-72
2023/12/21 02:31:57;;;;;;;0.20;0.20;;;;;;;;;;4973590;28;20239;-72
2023/12/21 02:34:24;;;;;;;0.20;0.20;;;;;;;;;;4984521;28;20199;-72
2023/12/21 02:36:50;;;;;;;0.20;0.20;;;;;;;;;;4973685;28;20258;-72
2023/12/21 02:39:16;;;;;;;0.20;0.20;;;;;;;;;;4984262;28;20274;-72
2023/12/21 02:41:44;;;;;;;0.20;0.20;;;;;;;;;;4973807;28;20255;-72
2023/12/21 02:44:10;;;;;;;0.10;0.10;;;;;;;;;;4984295;28;20251;-72
2023/12/21 02:46:37;;;;;;;0.20;0.20;;;;;;;;;;4973572;28;20244;-72
2023/12/21 02:49:04;;;;;;;0.20;0.20;;;;;;;;;;4984321;28;20206;-73
2023/12/21 02:51:30;;;;;;;0.10;0.10;;;;;;;;;;4973589;28;20344;-72
2023/12/21 02:53:57;;;;;;;0.10;0.10;;;;;;;;;;4984378;28;20379;-71
2023/12/21 02:56:23;;;;;;;0.10;0.10;;;;;;;;;;4973794;28;20256;-72
2023/12/21 02:58:51;;;;;;;0.20;0.20;;;;;;;;;;4983928;28;20228;-72
2023/12/21 03:01:17;;;;;;;0.10;0.10;;;;;;;;;;4973650;28;20248;-72
2023/12/21 03:03:43;;;;;;;0.20;0.20;;;;;;;;;;4983822;28;20296;-72
2023/12/21 03:06:10;;;;;;;0.20;0.20;;;;;;;;;;4973716;28;20305;-72
2023/12/21 03:08:36;;;;;;;0.20;0.20;;;;;;;;;;4983780;28;20243;-73
2023/12/21 03:11:03;;;;;;;0.20;0.20;;;;;;;;;;4973803;28;20584;-72
2023/12/21 03:13:29;;;;;;;0.20;0.20;;;;;;;;;;4984407;28;20208;-72
2023/12/21 03:15:57;;;;;;;0.17;0.17;;;;;;;;;;4977536;28;20248;-72
2023/12/21 03:18:23;;;;;;;0.20;0.20;;;;;;;;;;4987702;28;20215;-72
2023/12/21 03:20:49;;;;;;;0.20;0.20;;;;;;;;;;4977561;28;20244;-72
2023/12/21 03:23:16;;;;;;;0.20;0.20;;;;;;;;;;4987493;28;20429;-72
2023/12/21 03:25:42;;;;;;;0.20;0.20;;;;;;;;;;4977743;28;20265;-72
2023/12/21 03:28:10;;;;;;;0.17;0.17;;;;;;;;;;4987321;28;20439;-72
2023/12/21 03:30:36;;;;;;;0.20;0.20;;;;;;;;;;4977238;28;20467;-72
2023/12/21 03:33:04;;;;;;;0.20;0.20;;;;;;;;;;4987316;28;20459;-72
2023/12/21 03:35:31;;;;;;;0.10;0.10;;;;;;;;;;4977570;28;20256;-72
2023/12/21 03:37:57;;;;;;;0.20;0.20;;;;;;;;;;4987035;28;20214;-73
2023/12/21 03:40:23;;;;;;;0.20;0.20;;;;;;;;;;4977478;28;20256;-72
2023/12/21 03:42:52;;;;;;;0.20;0.20;;;;;;;;;;4986966;28;20199;-72
2023/12/21 03:45:18;;;;;;;0.20;0.20;;;;;;;;;;4977493;28;20452;-72
2023/12/21 03:47:44;;;;;;;0.10;0.10;;;;;;;;;;4986707;28;20443;-72
2023/12/21 03:50:12;;;;;;;0.20;0.20;;;;;;;;;;4977781;28;20208;-73
2023/12/21 03:52:38;;;;;;;0.10;0.10;;;;;;;;;;4986174;28;20301;-71
2023/12/21 03:55:05;;;;;;;0.20;0.20;;;;;;;;;;4987549;28;20206;-72
2023/12/21 03:57:32;;;;;;;0.20;0.20;;;;;;;;;;4976421;28;20311;-73
2023/12/21 04:00:00;;;;;;;0.20;0.20;;;;;;;;;;4987418;28;20282;-72
2023/12/21 04:02:26;;;;;;;0.20;0.20;;;;;;;;;;4976045;28;20249;-72
2023/12/21 04:04:52;;;;;;;2.23;2.13;;;;;;;;;;4987073;28;20307;-72
2023/12/21 04:07:20;;;;;;;0.10;0.10;;;;;;;;;;4976154;28;20310;-72
2023/12/21 04:09:46;;;;;;;0.20;0.20;;;;;;;;;;4986944;28;20279;-73
2023/12/21 04:12:13;;;;;;;0.10;0.10;;;;;;;;;;4975935;28;20240;-73
2023/12/21 04:14:39;;;;;;;0.20;0.20;;;;;;;;;;4986929;28;20209;-73
2023/12/21 04:17:06;;;;;;;0.13;0.13;;;;;;;;;;4975539;28;20250;-72
2023/12/21 04:19:32;;;;;;;0.20;0.20;;;;;;;;;;4987177;28;20446;-72
2023/12/21 04:21:58;;;;;;;0.10;0.10;;;;;;;;;;4975969;28;20241;-72
2023/12/21 04:24:26;;;;;;;0.10;0.10;;;;;;;;;;4986599;28;20209;-72
2023/12/21 04:26:53;;;;;;;0.10;0.10;;;;;;;;;;4974775;28;20248;-72
2023/12/21 04:29:19;;;;;;;0.10;0.10;;;;;;;;;;4986783;28;20232;-73
2023/12/21 04:31:45;;;;;;;0.17;0.17;;;;;;;;;;4975934;28;20454;-72
2023/12/21 04:34:12;;;;;;;0.10;0.10;;;;;;;;;;4986687;28;20209;-72
2023/12/21 04:36:38;;;;;;;0.20;0.20;;;;;;;;;;4975724;28;20263;-73
2023/12/21 04:39:05;;;;;;;0.10;0.10;;;;;;;;;;4986482;28;20209;-72
2023/12/21 04:41:32;;;;;;;0.10;0.10;;;;;;;;;;4975724;28;20456;-73
2023/12/21 04:43:59;;;;;;;0.20;0.20;;;;;;;;;;4986042;28;20213;-72
2023/12/21 04:46:25;;;;;;;0.10;0.10;;;;;;;;;;4975732;28;20245;-72
2023/12/21 04:48:52;;;;;;;0.10;0.10;;;;;;;;;;4985999;28;20213;-72
2023/12/21 04:51:18;;;;;;;0.10;0.10;;;;;;;;;;4975571;28;20248;-73
2023/12/21 04:53:45;;;;;;;0.20;0.20;;;;;;;;;;4985906;28;20242;-73
2023/12/21 04:56:11;;;;;;;0.10;0.10;;;;;;;;;;4975545;28;20253;-72
2023/12/21 04:58:40;;;;;;;0.20;0.20;;;;;;;;;;4985411;28;20285;-72
2023/12/21 05:01:07;;;;;;;0.10;0.10;;;;;;;;;;4975247;28;20291;-73
2023/12/21 05:03:33;;;;;;;0.20;0.20;;;;;;;;;;4985249;28;20227;-72
2023/12/21 05:06:00;;;;;;;0.20;0.20;;;;;;;;;;4975183;28;20308;-72
2023/12/21 05:08:26;;;;;;;0.10;0.10;;;;;;;;;;4985648;28;20209;-73
2023/12/21 05:10:53;;;;;;;0.10;0.10;;;;;;;;;;4975397;28;20244;-72
2023/12/21 05:13:19;;;;;;;0.10;0.10;;;;;;;;;;4985139;28;20478;-72
2023/12/21 05:15:47;;;;;;;0.17;0.17;;;;;;;;;;4975455;28;20245;-72
2023/12/21 05:18:14;;;;;;;0.10;0.10;;;;;;;;;;4985351;28;20455;-72
2023/12/21 05:20:40;;;;;;;0.17;0.17;;;;;;;;;;4975353;28;20241;-72
2023/12/21 05:23:06;;;;;;;0.13;0.13;;;;;;;;;;4984962;28;20191;-73
2023/12/21 05:25:34;;;;;;;0.10;0.10;;;;;;;;;;4975481;28;20255;-72
2023/12/21 05:28:01;;;;;;;0.10;0.10;;;;;;;;;;4985142;28;20224;-72
2023/12/21 05:30:27;;;;;;;0.10;0.10;;;;;;;;;;4975506;28;20208;-72
2023/12/21 05:32:55;;;;;;;0.10;0.10;;;;;;;;;;4984646;28;20215;-72
2023/12/21 05:35:21;;;;;;;0.13;0.13;;;;;;;;;;4975256;28;20480;-73
2023/12/21 05:37:48;;;;;;;0.10;0.10;;;;;;;;;;4984381;28;20240;-72
2023/12/21 05:40:15;;;;;;;0.17;0.17;;;;;;;;;;4975503;28;20237;-72
2023/12/21 05:42:41;;;;;;;0.13;0.13;;;;;;;;;;4984394;28;20224;-73
2023/12/21 05:45:08;;;;;;;0.10;0.10;;;;;;;;;;4985272;28;20269;-72
2023/12/21 05:47:34;;;;;;;0.10;0.10;;;;;;;;;;4958028;28;20221;-71
2023/12/21 05:50:03;;;;;;;0.10;0.10;;;;;;;;;;4985301;28;20270;-72
2023/12/21 05:52:29;;;;;;;0.13;0.13;;;;;;;;;;4974143;28;20246;-72
2023/12/21 05:54:55;;;;;;;0.10;0.10;;;;;;;;;;4985015;28;20465;-73
2023/12/21 05:57:22;;;;;;;0.10;0.10;;;;;;;;;;4973943;28;20292;-72
2023/12/21 05:59:48;;;;;;;0.20;0.20;;;;;;;;;;4985056;28;20249;-72
2023/12/21 06:02:15;;;;;;;0.10;0.10;;;;;;;;;;4973804;28;20249;-72
2023/12/21 06:04:41;;;;;;;0.10;0.10;;;;;;;;;;4985076;28;20432;-73
2023/12/21 06:07:09;;;;;;;0.10;0.10;;;;;;;;;;4973895;28;20309;-72
2023/12/21 06:09:35;;;;;;;0.20;0.20;;;;;;;;;;4984861;28;20207;-72
2023/12/21 06:12:01;;;;;;;0.10;0.10;;;;;;;;;;4973846;28;20312;-72
2023/12/21 06:14:28;;;;;;;0.10;0.10;;;;;;;;;;4985047;28;20244;-72
2023/12/21 06:16:54;;;;;;;0.10;0.10;;;;;;;;;;4973972;28;20313;-73
2023/12/21 06:19:21;;;;;;;0.20;0.20;;;;;;;;;;4984911;28;20245;-73
2023/12/21 06:21:47;;;;;;;0.10;0.10;;;;;;;;;;4973920;28;20302;-72
2023/12/21 06:24:15;;;;;;;0.13;0.13;;;;;;;;;;4984548;28;20220;-73
2023/12/21 06:26:41;;;;;;;0.10;0.10;;;;;;;;;;4973831;28;20493;-73
2023/12/21 06:29:08;;;;;;;0.10;0.10;;;;;;;;;;4984497;28;20395;-72
2023/12/21 06:31:34;;;;;;;0.10;0.10;;;;;;;;;;4973671;28;20255;-72
2023/12/21 06:34:01;;;;;;;0.10;0.10;;;;;;;;;;4984312;28;20206;-73
2023/12/21 06:36:27;;;;;;;0.10;0.10;;;;;;;;;;4973870;28;20272;-72
2023/12/21 06:38:53;;;;;;;0.10;0.10;;;;;;;;;;4984235;28;20244;-73
2023/12/21 06:41:21;;;;;;;0.10;0.10;;;;;;;;;;4973818;28;20318;-73
2023/12/21 06:43:47;;;;;;;0.20;0.20;;;;;;;;;;4984460;28;20252;-73
2023/12/21 06:46:14;;;;;;;0.10;0.10;;;;;;;;;;4973944;28;20324;-72
2023/12/21 06:48:41;;;;;;;0.10;0.10;;;;;;;;;;4985129;28;20456;-73
2023/12/21 06:51:07;;;;;;;0.10;0.10;;;;;;;;;;4978104;28;20564;-73
2023/12/21 06:53:34;;;;;;;0.10;0.10;;;;;;;;;;4987866;28;20298;-72
2023/12/21 06:56:00;;;;;;;0.10;0.10;;;;;;;;;;4977803;28;20317;-72
2023/12/21 06:58:28;;;;;;;0.10;0.10;;;;;;;;;;4988001;28;20208;-73
2023/12/21 07:00:55;;;;;;;0.10;0.10;;;;;;;;;;4977768;28;20310;-73
2023/12/21 07:03:22;;;;;;;0.20;0.20;;;;;;;;;;4987808;28;20240;-72
2023/12/21 07:05:50;;;;;;;0.10;0.10;;;;;;;;;;4977698;28;20486;-73
2023/12/21 07:08:16;;;;;;;0.10;0.10;;;;;;;;;;4987687;28;20207;-72
2023/12/21 07:10:52;;;;;;;0.20;0.20;;;;;;;;;;4977817;28;20305;-72
2023/12/21 07:13:18;;;;;;;0.20;0.20;;;;;;;;;;4987538;28;20449;-73
2023/12/21 07:15:46;;;;;;;0.20;0.20;;;;;;;;;;4977864;28;20569;-72
2023/12/21 07:18:13;;;;;;;0.20;0.20;;;;;;;;;;4987142;28;20236;-72
2023/12/21 07:20:39;;;;;;;0.20;0.20;;;;;;;;;;4977847;28;20485;-73
2023/12/21 07:23:05;;;;;;;0.10;0.10;;;;;;;;;;4987045;28;20191;-73
2023/12/21 07:25:32;;;;;;;0.10;0.10;;;;;;;;;;4977868;28;20245;-73
2023/12/21 07:27:58;;;;;;;0.10;0.10;;;;;;;;;;4987192;28;20489;-73
2023/12/21 07:30:25;;;;;;;0.10;0.10;;;;;;;;;;4977472;28;20210;-72
2023/12/21 07:32:52;;;;;;;0.20;0.20;;;;;;;;;;4986565;28;20230;-72
2023/12/21 07:35:19;;;;;;;0.10;0.10;;;;;;;;;;4977830;28;20463;-72
2023/12/21 07:37:45;;;;;;;0.10;0.10;;;;;;;;;;4986570;28;20198;-72
2023/12/21 07:40:12;;;;;;;0.10;0.10;;;;;;;;;;4977389;28;20208;-73
2023/12/21 07:42:39;;;;;;;0.10;0.10;;;;;;;;;;4986700;28;20191;-72
2023/12/21 07:45:06;;;;;;;0.10;0.10;;;;;;;;;;4987801;28;20355;-72
2023/12/21 07:47:32;;;;;;;0.10;0.10;;;;;;;;;;4976293;28;20249;-73
2023/12/21 07:50:00;;;;;;;0.10;0.10;;;;;;;;;;4987460;28;20249;-73
2023/12/21 07:52:27;;;;;;;0.10;0.10;;;;;;;;;;4975947;28;20272;-72
2023/12/21 07:54:53;;;;;;;0.13;0.13;;;;;;;;;;4987385;28;20244;-72
2023/12/21 07:57:19;;;;;;;0.20;0.20;;;;;;;;;;4976314;28;20492;-73
2023/12/21 07:59:46;;;;;;;0.13;0.13;;;;;;;;;;4987022;28;20226;-73
2023/12/21 08:02:12;;;;;;;0.20;0.20;;;;;;;;;;4976058;28;20242;-72
2023/12/21 08:04:39;;;;;;;0.10;0.10;;;;;;;;;;4987175;28;20236;-73
2023/12/21 08:07:06;;;;;;;0.13;0.13;;;;;;;;;;4976087;28;20474;-73
2023/12/21 08:09:33;;;;;;;0.10;0.10;;;;;;;;;;4987136;28;20234;-73
2023/12/21 08:11:59;;;;;;;0.10;0.10;;;;;;;;;;4976030;28;20242;-72
2023/12/21 08:14:28;;;;;;;0.20;0.20;;;;;;;;;;4986862;28;20229;-72
2023/12/21 08:16:54;;;;;;;0.10;0.10;;;;;;;;;;4976076;28;20529;-72
2023/12/21 08:19:21;;;;;;;0.20;0.20;;;;;;;;;;4986737;28;20205;-73
2023/12/21 08:21:47;;;;;;;0.20;0.20;;;;;;;;;;4976056;28;20245;-73
2023/12/21 08:24:15;;;;;;;0.10;0.10;;;;;;;;;;4986594;28;20280;-73
2023/12/21 08:26:41;;;;;;;0.10;0.10;;;;;;;;;;4976078;28;20480;-73
2023/12/21 08:29:08;;;;;;;0.10;0.10;;;;;;;;;;4986666;28;20457;-73
2023/12/21 08:31:34;;;;;;;0.20;0.20;;;;;;;;;;4975771;28;20324;-72
2023/12/21 08:34:01;;;;;;;0.10;0.10;;;;;;;;;;4986225;28;20234;-73
2023/12/21 08:36:28;;;;;;;0.13;0.13;;;;;;;;;;4976070;28;20242;-72
2023/12/21 08:38:54;;;;;;;0.10;0.10;;;;;;;;;;4986236;28;20257;-73
2023/12/21 08:41:24;;;;;;;0.20;0.20;;;;;;;;;;4975827;28;20238;-73
2023/12/21 08:43:51;;;;;;;0.17;0.17;;;;;;;;;;4986455;28;20448;-77
2023/12/21 08:46:18;;;;;;;0.10;0.10;;;;;;;;;;4975893;28;20309;-77
2023/12/21 08:48:44;;;;;;;0.20;0.20;;;;;;;;;;4985896;28;20274;-73
2023/12/21 08:51:11;;;;;;;0.10;0.10;;;;;;;;;;4976000;28;20243;-72
2023/12/21 08:53:37;;;;;;;0.10;0.10;;;;;;;;;;4986013;28;20230;-72
2023/12/21 08:56:04;;;;;;;0.10;0.10;;;;;;;;;;4975837;28;20304;-73
2023/12/21 08:58:31;;;;;;;0.10;0.10;;;;;;;;;;4985635;28;20249;-74
2023/12/21 09:00:58;;;;;;;0.10;0.10;;;;;;;;;;4975816;28;20317;-74
2023/12/21 09:03:25;;;;;;;0.20;0.20;;;;;;;;;;4985309;28;20202;-74
2023/12/21 09:05:51;;;;;;;0.20;0.20;;;;;;;;;;4975820;28;20308;-74
2023/12/21 09:08:18;;;;;;;0.10;0.10;;;;;;;;;;4985262;28;20210;-76
2023/12/21 09:10:51;;;;;;;0.10;0.10;;;;;;;;;;4975486;28;20449;-75
2023/12/21 09:13:17;;;;;;;0.20;0.20;;;;;;;;;;4985155;28;20231;-76
2023/12/21 09:15:45;;;;;;;0.10;0.10;;;;;;;;;;4975869;28;20306;-75
2023/12/21 09:18:11;;;;;;;0.10;0.10;;;;;;;;;;4985358;28;20195;-76
2023/12/21 09:20:38;;;;;;;0.13;0.13;;;;;;;;;;4975803;28;20313;-76
2023/12/21 09:23:04;;;;;;;0.10;0.10;;;;;;;;;;4985195;28;20259;-75
2023/12/21 09:25:31;;;;;;;0.17;0.17;;;;;;;;;;4975668;28;20256;-75
2023/12/21 09:27:58;;;;;;;0.10;0.10;;;;;;;;;;4985123;28;20512;-75
2023/12/21 09:30:26;;;;;;;0.10;0.10;;;;;;;;;;4975691;28;20278;-75
2023/12/21 09:32:53;;;;;;;0.10;0.10;;;;;;;;;;4984698;28;20222;-76
2023/12/21 09:35:20;;;;;;;0.10;0.10;;;;;;;;;;4975462;28;20277;-75
2023/12/21 09:37:47;;;;;;;0.10;0.10;;;;;;;;;;4984863;28;20431;-75
2023/12/21 09:40:14;;;;;;;0.10;0.10;;;;;;;;;;4975574;28;20240;-76
2023/12/21 09:42:43;;;;;;;0.20;0.20;;;;;;;;;;4984323;28;20267;-76
2023/12/21 09:45:11;;;;;;;0.10;0.10;;;;;;;;;;4980978;28;20445;-76
2023/12/21 09:47:38;;;;;;;0.10;0.10;;;;;;;;;;4984396;28;20284;-75
2023/12/21 09:50:07;;;;;;;0.13;0.13;;;;;;;;;;4985580;28;20395;-76
2023/12/21 09:52:34;;;;;;;0.10;0.10;;;;;;;;;;4974179;28;20243;-76
2023/12/21 09:55:01;;;;;;;0.10;0.10;;;;;;;;;;4985255;28;20202;-76
2023/12/21 09:57:27;;;;;;;0.10;0.10;;;;;;;;;;4974208;28;20243;-75
2023/12/21 09:59:56;;;;;;;0.10;0.10;;;;;;;;;;4985136;28;20278;-75
2023/12/21 10:02:26;;;;;;;0.20;0.20;;;;;;;;;;4973945;28;20258;-75
2023/12/21 10:04:53;;;;;;;0.10;0.10;;;;;;;;;;4985115;28;20234;-75
2023/12/21 10:07:22;;;;;;;0.20;0.20;;;;;;;;;;4974094;28;20442;-76
2023/12/21 10:09:49;;;;;;;0.10;0.10;;;;;;;;;;4984990;28;20199;-75
2023/12/21 10:12:15;;;;;;;0.10;0.10;;;;;;;;;;4973992;28;20309;-74
2023/12/21 10:14:43;;;;;;;0.20;0.20;;;;;;;;;;4985028;28;20259;-75
2023/12/21 10:17:11;;;;;;;0.10;0.10;;;;;;;;;;4973751;28;20267;-75
2023/12/21 10:19:37;;;;;;;0.17;0.17;;;;;;;;;;4985117;28;20206;-75
2023/12/21 10:22:04;;;;;;;0.10;0.10;;;;;;;;;;4973869;28;20258;-76
2023/12/21 10:24:33;;;;;;;0.10;0.10;;;;;;;;;;4983889;28;20270;-75
2023/12/21 10:26:59;;;;;;;0.10;0.10;;;;;;;;;;4973916;28;20457;-75
2023/12/21 10:29:25;;;;;;;0.20;0.20;;;;;;;;;;4984586;28;20200;-75
2023/12/21 10:31:52;;;;;;;0.10;0.10;;;;;;;;;;4973723;28;20600;-76
2023/12/21 10:34:18;;;;;;;0.10;0.10;;;;;;;;;;4984674;28;20294;-75
2023/12/21 10:36:45;;;;;;;0.10;0.10;;;;;;;;;;4973987;28;20550;-74
2023/12/21 10:39:12;;;;;;;0.10;0.10;;;;;;;;;;4984604;28;20459;-75
2023/12/21 10:41:43;;;;;;;0.10;0.10;;;;;;;;;;4973753;28;20239;-74
2023/12/21 10:44:09;;;;;;;0.10;0.10;;;;;;;;;;4984148;28;20191;-75
2023/12/21 10:46:37;;;;;;;0.20;0.20;;;;;;;;;;4973813;28;20422;-75
2023/12/21 10:49:06;;;;;;;0.10;0.10;;;;;;;;;;4984472;28;20207;-76
2023/12/21 10:51:35;;;;;;;0.10;0.10;;;;;;;;;;4973662;28;20272;-74
2023/12/21 10:54:02;;;;;;;0.10;0.10;;;;;;;;;;4984369;28;20468;-74
2023/12/21 10:56:28;;;;;;;0.10;0.10;;;;;;;;;;4973523;28;20250;-74
2023/12/21 10:58:57;;;;;;;0.10;0.10;;;;;;;;;;4983925;28;20245;-74
2023/12/21 11:01:24;;;;;;;0.10;0.10;;;;;;;;;;4973660;28;20242;-74
2023/12/21 11:03:50;;;;;;;0.10;0.10;;;;;;;;;;4983649;28;20223;-74
2023/12/21 11:06:17;;;;;;;0.10;0.10;;;;;;;;;;4973762;28;20252;-73
2023/12/21 11:08:44;;;;;;;0.17;0.17;;;;;;;;;;4984143;28;20210;-73
2023/12/21 11:11:11;;;;;;;0.10;0.10;;;;;;;;;;4973478;28;20262;-73
2023/12/21 11:13:40;;;;;;;1.93;1.90;;;;;;;;;;4983661;28;20229;-74
2023/12/21 11:16:09;;;;;;;0.10;0.10;;;;;;;;;;4973685;28;20252;-74
2023/12/21 11:18:35;;;;;;;0.10;0.10;;;;;;;;;;4983930;28;20215;-74
2023/12/21 11:21:03;;;;;;;0.10;0.10;;;;;;;;;;4973703;28;20244;-76
2023/12/21 11:23:29;;;;;;;0.10;0.10;;;;;;;;;;4983830;28;20282;-73
2023/12/21 11:25:56;;;;;;;0.10;0.10;;;;;;;;;;4973742;28;20584;-73
2023/12/21 11:28:27;;;;;;;0.17;0.17;;;;;;;;;;4983739;28;20236;-74
2023/12/21 11:30:54;;;;;;;0.10;0.10;;;;;;;;;;4973982;28;20271;-74
2023/12/21 11:33:27;;;;;;;3.00;2.80;;;;;;;;;;4983212;28;20214;-74
2023/12/21 11:35:54;;;;;;;0.20;0.20;;;;;;;;;;4976369;28;20280;-74
2023/12/21 11:38:24;;;;;;;0.10;0.10;;;;;;;;;;4986866;28;20268;-73
2023/12/21 11:40:50;;;;;;;0.10;0.10;;;;;;;;;;4977460;28;20796;-74
2023/12/21 11:43:24;;;;;;;0.10;0.10;;;;;;;;;;4986758;28;20246;-73
2023/12/21 11:45:51;;;;;;;0.10;0.10;;;;;;;;;;4977148;28;20242;-73
2023/12/21 11:48:20;;;;;;;0.10;0.10;;;;;;;;;;4986635;28;20206;-73
2023/12/21 11:50:48;;;;;;;0.10;0.10;;;;;;;;;;4977098;28;20246;-72
2023/12/21 11:53:16;;;;;;;0.13;0.13;;;;;;;;;;4986547;28;20229;-73
2023/12/21 11:55:43;;;;;;;0.20;0.20;;;;;;;;;;4977169;28;20245;-73
2023/12/21 11:58:10;;;;;;;0.20;0.20;;;;;;;;;;4986722;28;20210;-72
2023/12/21 12:00:44;;;;;;;0.10;0.10;;;;;;;;;;4977085;28;20246;-72
2023/12/21 12:03:11;;;;;;;0.10;0.10;;;;;;;;;;4986173;28;20203;-73
2023/12/21 12:05:37;;;;;;;0.13;0.13;;;;;;;;;;4976814;28;20249;-72
2023/12/21 12:08:06;;;;;;;0.10;0.10;;;;;;;;;;4986369;28;20203;-73
2023/12/21 12:10:32;;;;;;;0.10;0.10;;;;;;;;;;4977211;28;20242;-73
2023/12/21 12:13:00;;;;;;;0.17;0.17;;;;;;;;;;4986598;28;20202;-73
2023/12/21 12:15:26;;;;;;;0.20;0.20;;;;;;;;;;4976959;28;20265;-73
2023/12/21 12:17:52;;;;;;;0.20;0.20;;;;;;;;;;4986061;28;20233;-73
2023/12/21 12:20:19;;;;;;;0.20;0.20;;;;;;;;;;4977053;28;20410;-73
2023/12/21 12:22:46;;;;;;;0.10;0.10;;;;;;;;;;4985971;28;20245;-73
2023/12/21 12:25:17;;;;;;;0.10;0.10;;;;;;;;;;4976730;28;20203;-72
2023/12/21 12:27:43;;;;;;;0.10;0.10;;;;;;;;;;4985981;28;20384;-73
2023/12/21 12:30:11;;;;;;;0.20;0.20;;;;;;;;;;4980636;28;20378;-73
2023/12/21 12:32:37;;;;;;;0.10;0.10;;;;;;;;;;4985815;28;20309;-74
2023/12/21 12:35:06;;;;;;;0.20;0.20;;;;;;;;;;4986893;28;20540;-74
2023/12/21 12:37:33;;;;;;;0.20;0.20;;;;;;;;;;4975743;28;20235;-73
2023/12/21 12:39:59;;;;;;;0.10;0.10;;;;;;;;;;4986989;28;20269;-73
2023/12/21 12:42:27;;;;;;;0.10;0.10;;;;;;;;;;4975791;28;20323;-74
2023/12/21 12:44:53;;;;;;;0.20;0.20;;;;;;;;;;4986692;28;20206;-73
2023/12/21 12:47:21;;;;;;;0.10;0.10;;;;;;;;;;4974662;28;20273;-72
2023/12/21 12:49:47;;;;;;;0.13;0.13;;;;;;;;;;4986601;28;20207;-72
2023/12/21 12:52:17;;;;;;;0.10;0.10;;;;;;;;;;4975355;28;20313;-73
2023/12/21 12:54:43;;;;;;;0.20;0.20;;;;;;;;;;4986125;28;20254;-73
2023/12/21 12:57:11;;;;;;;0.13;0.13;;;;;;;;;;4975052;28;20243;-72
2023/12/21 12:59:38;;;;;;;0.10;0.10;;;;;;;;;;4986219;28;20226;-73
2023/12/21 13:02:05;;;;;;;0.20;0.20;;;;;;;;;;4975275;28;20302;-73
2023/12/21 13:04:32;;;;;;;0.20;0.20;;;;;;;;;;4986097;28;20231;-72
2023/12/21 13:06:58;;;;;;;0.10;0.10;;;;;;;;;;4975244;28;20267;-73
2023/12/21 13:09:26;;;;;;;0.20;0.20;;;;;;;;;;4986054;28;20442;-76
2023/12/21 13:11:52;;;;;;;0.10;0.10;;;;;;;;;;4975218;28;20246;-77
2023/12/21 13:14:19;;;;;;;0.20;0.20;;;;;;;;;;4985690;28;20254;-75
2023/12/21 13:16:46;;;;;;;0.10;0.10;;;;;;;;;;4974997;28;20523;-75
2023/12/21 13:19:13;;;;;;;0.20;0.20;;;;;;;;;;4985804;28;20238;-75
2023/12/21 13:21:39;;;;;;;0.10;0.10;;;;;;;;;;4975114;28;20238;-75
2023/12/21 13:24:06;;;;;;;0.10;0.10;;;;;;;;;;4985642;28;20474;-75
2023/12/21 13:26:32;;;;;;;0.20;0.20;;;;;;;;;;4974892;28;20249;-75
2023/12/21 13:28:59;;;;;;;0.10;0.10;;;;;;;;;;4985654;28;20212;-75
2023/12/21 13:31:25;;;;;;;0.20;0.20;;;;;;;;;;4975148;28;20245;-75
2023/12/21 13:33:53;;;;;;;0.10;0.10;;;;;;;;;;4985039;28;20438;-75
2023/12/21 13:36:20;;;;;;;0.20;0.20;;;;;;;;;;4975050;28;20454;-75
2023/12/21 13:38:47;;;;;;;0.10;0.10;;;;;;;;;;4985278;28;20397;-75
2023/12/21 13:41:14;;;;;;;0.13;0.13;;;;;;;;;;4974725;28;20642;-75
2023/12/21 13:43:42;;;;;;;0.10;0.10;;;;;;;;;;4985137;28;20422;-75
2023/12/21 13:46:09;;;;;;;0.10;0.10;;;;;;;;;;4975048;28;20242;-75
2023/12/21 13:48:36;;;;;;;0.20;0.20;;;;;;;;;;4985113;28;20216;-75
2023/12/21 13:51:04;;;;;;;0.20;0.20;;;;;;;;;;4974638;28;20289;-75
2023/12/21 13:53:30;;;;;;;0.10;0.10;;;;;;;;;;4984898;28;20213;-75
2023/12/21 13:55:57;;;;;;;0.10;0.10;;;;;;;;;;4974873;28;20260;-75
2023/12/21 13:58:23;;;;;;;0.10;0.10;;;;;;;;;;4984323;28;20203;-75
2023/12/21 14:00:50;;;;;;;0.20;0.20;;;;;;;;;;4974695;28;20265;-75
2023/12/21 14:03:18;;;;;;;0.10;0.10;;;;;;;;;;4984293;28;20234;-75
2023/12/21 14:05:44;;;;;;;0.20;0.20;;;;;;;;;;4974425;28;20307;-75
2023/12/21 14:08:12;;;;;;;0.10;0.10;;;;;;;;;;4984148;28;20224;-75
2023/12/21 14:10:38;;;;;;;0.17;0.17;;;;;;;;;;4974890;28;20608;-75
2023/12/21 14:13:05;;;;;;;0.17;0.17;;;;;;;;;;4984212;28;20233;-77
2023/12/21 14:15:31;;;;;;;0.20;0.20;;;;;;;;;;4974579;28;20269;-77
2023/12/21 14:17:57;;;;;;;0.10;0.10;;;;;;;;;;4984345;28;20363;-78
2023/12/21 14:20:24;;;;;;;0.10;0.10;;;;;;;;;;4974809;28;20254;-77
2023/12/21 14:22:50;;;;;;;0.13;0.13;;;;;;;;;;4984275;28;20368;-77
2023/12/21 14:25:18;;;;;;;0.20;0.20;;;;;;;;;;4974743;28;20294;-78
2023/12/21 14:27:45;;;;;;;0.10;0.10;;;;;;;;;;4983874;28;20207;-78
2023/12/21 14:30:12;;;;;;;0.13;0.13;;;;;;;;;;4974879;28;20210;-77
2023/12/21 14:32:39;;;;;;;0.10;0.10;;;;;;;;;;4984040;28;20389;-74
2023/12/21 14:35:06;;;;;;;0.20;0.20;;;;;;;;;;4985032;28;20237;-75
2023/12/21 14:37:32;;;;;;;0.10;0.10;;;;;;;;;;4973891;28;20242;-75
2023/12/21 14:39:58;;;;;;;0.20;0.20;;;;;;;;;;4984842;28;20464;-76
2023/12/21 14:42:26;;;;;;;0.10;0.10;;;;;;;;;;4974281;28;20254;-77